Time;durP1;ratioP1;P1;durP2;ratioP2;P2;SDS_P1;SDS_P2;PMS_P1;PMS_P2;Temp;Humidity;BMP_temperature;BMP_pressure;BME280_temperature;BME280_humidity;BME280_pressure;Samples;Min_cycle;Max_cycle;Signal;HPM_P1;HPM_P2
2021/04/22 00:00:58;;;;;;;29.07;17.17;;;;;;;;;;4443264;32;20267;-54
2021/04/22 00:03:23;;;;;;;26.47;16.70;;;;;;;;;;4442697;32;20367;-54
2021/04/22 00:05:49;;;;;;;27.00;14.67;;;;;;;;;;4444081;32;20225;-54
2021/04/22 00:08:14;;;;;;;18.10;11.13;;;;;;;;;;4443741;32;20338;-54
2021/04/22 00:10:41;;;;;;;21.17;13.57;;;;;;;;;;4443796;32;20224;-54
2021/04/22 00:13:08;;;;;;;25.80;14.33;;;;;;;;;;4439562;32;20276;-54
2021/04/22 00:15:34;;;;;;;24.50;15.60;;;;;;;;;;4446679;32;20367;-54
2021/04/22 00:18:00;;;;;;;21.83;14.57;;;;;;;;;;4440529;32;20233;-54
2021/04/22 00:20:26;;;;;;;17.53;11.93;;;;;;;;;;4444037;32;20232;-54
2021/04/22 00:22:52;;;;;;;26.27;16.03;;;;;;;;;;4444032;32;20441;-54
2021/04/22 00:25:18;;;;;;;31.43;16.17;;;;;;;;;;4436133;32;20311;-54
2021/04/22 00:27:44;;;;;;;29.10;17.17;;;;;;;;;;4441103;32;20884;-54
2021/04/22 00:30:12;;;;;;;29.83;14.67;;;;;;;;;;4441375;32;20324;-53
2021/04/22 00:32:38;;;;;;;21.30;14.03;;;;;;;;;;4444763;32;20645;-54
2021/04/22 00:35:05;;;;;;;22.37;13.40;;;;;;;;;;4444027;32;20311;-54
2021/04/22 00:37:31;;;;;;;20.10;12.80;;;;;;;;;;4445277;32;20728;-55
2021/04/22 00:39:56;;;;;;;30.23;16.47;;;;;;;;;;4439326;32;20219;-54
2021/04/22 00:42:22;;;;;;;30.73;16.67;;;;;;;;;;4441670;32;20291;-54
2021/04/22 00:44:48;;;;;;;33.13;18.53;;;;;;;;;;4443356;32;20216;-54
2021/04/22 00:47:18;;;;;;;33.50;17.00;;;;;;;;;;4440308;32;20303;-54
2021/04/22 00:49:44;;;;;;;25.07;15.47;;;;;;;;;;4441772;32;20261;-54
2021/04/22 00:52:10;;;;;;;23.97;14.60;;;;;;;;;;4439382;32;20252;-55
2021/04/22 00:54:39;;;;;;;21.90;13.70;;;;;;;;;;4440996;32;20309;-55
2021/04/22 00:57:08;;;;;;;24.70;14.50;;;;;;;;;;4443356;32;20300;-54
2021/04/22 00:59:35;;;;;;;22.60;13.87;;;;;;;;;;4445986;32;20327;-54
2021/04/22 01:02:14;;;;;;;29.97;15.03;;;;;;;;;;4440399;32;20294;-54
2021/04/22 01:04:41;;;;;;;25.73;15.07;;;;;;;;;;4437216;32;20224;-54
2021/04/22 01:07:06;;;;;;;27.40;14.60;;;;;;;;;;4441078;32;20251;-54
2021/04/22 01:09:32;;;;;;;27.90;15.73;;;;;;;;;;4436669;32;20236;-55
2021/04/22 01:12:00;;;;;;;19.87;12.07;;;;;;;;;;4437725;32;20290;-54
2021/04/22 01:14:26;;;;;;;21.03;12.20;;;;;;;;;;4447446;32;20249;-65
2021/04/22 01:16:51;;;;;;;28.07;13.70;;;;;;;;;;4444284;32;20437;-65
2021/04/22 01:19:17;;;;;;;19.77;12.00;;;;;;;;;;4446960;32;20716;-64
2021/04/22 01:21:42;;;;;;;20.27;12.03;;;;;;;;;;4443173;32;20291;-63
2021/04/22 01:24:09;;;;;;;20.77;11.60;;;;;;;;;;4448579;32;20224;-65
2021/04/22 01:26:35;;;;;;;17.90;11.57;;;;;;;;;;4437286;32;20201;-63
2021/04/22 01:29:01;;;;;;;21.00;10.87;;;;;;;;;;4448598;32;20461;-65
2021/04/22 01:31:27;;;;;;;28.63;10.50;;;;;;;;;;4440572;32;20356;-56
2021/04/22 01:34:01;;;;;;;17.40;10.30;;;;;;;;;;4440988;32;20774;-54
2021/04/22 01:36:31;;;;;;;15.33;9.73;;;;;;;;;;4438708;32;20216;-55
2021/04/22 01:38:57;;;;;;;20.47;10.10;;;;;;;;;;4443837;32;20213;-54
2021/04/22 01:41:22;;;;;;;19.90;10.93;;;;;;;;;;4440036;32;20314;-53
2021/04/22 01:43:48;;;;;;;20.97;10.57;;;;;;;;;;4446462;32;20221;-54
2021/04/22 01:46:13;;;;;;;15.47;9.67;;;;;;;;;;4439089;32;20771;-53
2021/04/22 01:48:40;;;;;;;23.10;11.70;;;;;;;;;;4448915;32;20283;-54
2021/04/22 01:51:06;;;;;;;20.23;11.43;;;;;;;;;;4442395;32;20236;-54
2021/04/22 01:53:31;;;;;;;28.13;13.47;;;;;;;;;;4441700;32;20257;-53
2021/04/22 01:55:57;;;;;;;23.40;13.87;;;;;;;;;;4443278;32;20296;-54
2021/04/22 01:58:25;;;;;;;23.07;12.67;;;;;;;;;;4451857;32;20658;-54
2021/04/22 02:00:54;;;;;;;24.70;14.23;;;;;;;;;;4446125;32;20271;-54
2021/04/22 02:03:20;;;;;;;21.07;13.03;;;;;;;;;;4447479;32;20280;-55
2021/04/22 02:05:47;;;;;;;25.83;15.20;;;;;;;;;;4443147;32;20600;-53
2021/04/22 02:08:13;;;;;;;24.53;14.60;;;;;;;;;;4442564;32;20299;-55
2021/04/22 02:10:40;;;;;;;29.90;16.10;;;;;;;;;;4446571;32;20347;-54
2021/04/22 02:13:07;;;;;;;22.80;13.07;;;;;;;;;;4445854;32;20262;-55
2021/04/22 02:15:33;;;;;;;26.00;12.63;;;;;;;;;;4447827;32;20288;-55
2021/04/22 02:17:59;;;;;;;17.30;11.93;;;;;;;;;;4444491;32;20787;-54
2021/04/22 02:20:26;;;;;;;28.97;14.67;;;;;;;;;;4448861;32;20251;-53
2021/04/22 02:22:52;;;;;;;33.07;16.90;;;;;;;;;;4444603;32;20319;-55
2021/04/22 02:25:19;;;;;;;32.40;14.37;;;;;;;;;;4447949;32;20259;-54
2021/04/22 02:27:45;;;;;;;27.03;13.30;;;;;;;;;;4435716;32;20224;-53
2021/04/22 02:30:20;;;;;;;23.40;14.30;;;;;;;;;;4441610;32;20648;-53
2021/04/22 02:32:46;;;;;;;27.10;13.77;;;;;;;;;;4446416;32;20204;-54
2021/04/22 02:35:16;;;;;;;32.27;16.27;;;;;;;;;;4445048;32;20348;-53
2021/04/22 02:37:41;;;;;;;33.13;18.00;;;;;;;;;;4448464;32;20216;-54
2021/04/22 02:40:09;;;;;;;38.97;19.30;;;;;;;;;;4447682;32;20281;-53
2021/04/22 02:42:35;;;;;;;42.87;18.10;;;;;;;;;;4447530;32;20719;-55
2021/04/22 02:45:01;;;;;;;32.17;16.33;;;;;;;;;;4440224;32;20216;-54
2021/04/22 02:47:26;;;;;;;30.87;15.47;;;;;;;;;;4441265;32;20203;-53
2021/04/22 02:49:52;;;;;;;26.87;17.13;;;;;;;;;;4438585;32;20288;-53
2021/04/22 02:52:17;;;;;;;32.83;16.77;;;;;;;;;;4440056;32;20872;-53
2021/04/22 02:54:43;;;;;;;28.00;15.97;;;;;;;;;;4448427;32;20402;-54
2021/04/22 02:57:10;;;;;;;24.20;15.23;;;;;;;;;;4444084;32;20361;-53
2021/04/22 02:59:35;;;;;;;26.40;15.47;;;;;;;;;;4448694;32;20236;-53
2021/04/22 03:02:01;;;;;;;26.13;16.37;;;;;;;;;;4441003;32;20326;-54
2021/04/22 03:04:27;;;;;;;34.77;15.80;;;;;;;;;;4447529;32;20636;-54
2021/04/22 03:06:52;;;;;;;20.97;14.20;;;;;;;;;;4440076;32;20374;-54
2021/04/22 03:09:18;;;;;;;19.77;12.13;;;;;;;;;;4447906;32;20684;-55
2021/04/22 03:11:43;;;;;;;17.20;10.83;;;;;;;;;;4443486;32;20364;-53
2021/04/22 03:14:09;;;;;;;22.00;10.07;;;;;;;;;;4448102;32;20308;-56
2021/04/22 03:16:34;;;;;;;14.23;9.43;;;;;;;;;;4441918;32;20335;-55
2021/04/22 03:19:00;;;;;;;16.23;10.37;;;;;;;;;;4448202;32;20259;-54
2021/04/22 03:21:25;;;;;;;15.33;9.67;;;;;;;;;;4443909;32;20334;-54
2021/04/22 03:23:51;;;;;;;32.57;11.30;;;;;;;;;;4446693;32;20255;-55
2021/04/22 03:26:16;;;;;;;24.73;12.30;;;;;;;;;;4442084;32;20305;-54
2021/04/22 03:28:42;;;;;;;21.33;11.00;;;;;;;;;;4447823;32;20697;-53
2021/04/22 03:31:07;;;;;;;25.27;12.23;;;;;;;;;;4445799;32;20788;-54
2021/04/22 03:33:33;;;;;;;20.80;12.47;;;;;;;;;;4445589;32;20319;-55
2021/04/22 03:35:58;;;;;;;27.53;13.20;;;;;;;;;;4443222;32;20266;-54
2021/04/22 03:38:24;;;;;;;31.23;15.70;;;;;;;;;;4450802;32;20356;-54
2021/04/22 03:40:49;;;;;;;18.67;14.10;;;;;;;;;;4446872;32;20250;-55
2021/04/22 03:43:15;;;;;;;19.57;12.40;;;;;;;;;;4440518;32;20336;-54
2021/04/22 03:45:40;;;;;;;23.53;13.13;;;;;;;;;;4444663;32;20236;-53
2021/04/22 03:48:06;;;;;;;23.27;12.97;;;;;;;;;;4444703;32;20271;-54
2021/04/22 03:50:31;;;;;;;23.87;15.43;;;;;;;;;;4446612;32;20271;-55
2021/04/22 03:52:57;;;;;;;23.57;13.43;;;;;;;;;;4439575;32;20322;-54
2021/04/22 03:55:22;;;;;;;29.00;15.40;;;;;;;;;;4442797;32;20289;-54
2021/04/22 03:57:48;;;;;;;27.57;15.80;;;;;;;;;;4443190;32;20299;-54
2021/04/22 04:00:17;;;;;;;27.63;15.60;;;;;;;;;;4440059;32;20876;-53
2021/04/22 04:02:42;;;;;;;27.23;16.03;;;;;;;;;;4439637;32;20693;-53
2021/04/22 04:05:08;;;;;;;25.67;15.47;;;;;;;;;;4446498;32;20330;-54
2021/04/22 04:07:34;;;;;;;32.47;18.63;;;;;;;;;;4440090;32;20685;-54
2021/04/22 04:10:00;;;;;;;35.27;21.50;;;;;;;;;;4446376;32;20213;-54
2021/04/22 04:12:27;;;;;;;40.10;23.27;;;;;;;;;;4439001;32;20287;-53
2021/04/22 04:14:52;;;;;;;41.03;26.27;;;;;;;;;;4445000;32;20297;-54
2021/04/22 04:17:18;;;;;;;59.07;27.37;;;;;;;;;;4443839;32;20801;-56
2021/04/22 04:19:43;;;;;;;49.80;29.70;;;;;;;;;;4446295;32;20288;-54
2021/04/22 04:22:09;;;;;;;42.97;26.10;;;;;;;;;;4439625;32;20353;-65
2021/04/22 04:24:34;;;;;;;47.77;27.23;;;;;;;;;;4446612;32;20299;-64
2021/04/22 04:27:00;;;;;;;32.07;23.13;;;;;;;;;;4434932;32;20309;-65
2021/04/22 04:29:25;;;;;;;28.53;21.17;;;;;;;;;;4435959;32;20241;-64
2021/04/22 04:31:51;;;;;;;31.83;21.43;;;;;;;;;;4440268;32;20292;-64
2021/04/22 04:34:17;;;;;;;36.50;23.33;;;;;;;;;;4446539;32;20291;-64
2021/04/22 04:36:46;;;;;;;30.93;21.30;;;;;;;;;;4444467;32;20220;-55
2021/04/22 04:39:13;;;;;;;37.43;22.57;;;;;;;;;;4449014;32;20565;-54
2021/04/22 04:41:39;;;;;;;31.97;23.40;;;;;;;;;;4440928;32;20276;-55
2021/04/22 04:44:05;;;;;;;46.97;26.13;;;;;;;;;;4449078;32;20258;-55
2021/04/22 04:46:31;;;;;;;35.60;25.07;;;;;;;;;;4439910;32;20580;-54
2021/04/22 04:48:56;;;;;;;41.10;28.47;;;;;;;;;;4447498;32;20216;-54
2021/04/22 04:51:22;;;;;;;50.87;27.43;;;;;;;;;;4441809;32;20308;-55
2021/04/22 04:53:48;;;;;;;41.30;24.43;;;;;;;;;;4444692;32;20277;-54
2021/04/22 04:56:17;;;;;;;48.47;26.37;;;;;;;;;;4437444;32;20217;-55
2021/04/22 04:58:42;;;;;;;50.07;27.73;;;;;;;;;;4449166;32;20243;-54
2021/04/22 05:01:08;;;;;;;43.50;25.57;;;;;;;;;;4441285;32;20220;-55
2021/04/22 05:03:33;;;;;;;41.03;23.73;;;;;;;;;;4444176;32;20344;-54
2021/04/22 05:05:59;;;;;;;33.57;22.73;;;;;;;;;;4441360;32;20228;-53
2021/04/22 05:08:24;;;;;;;35.10;21.87;;;;;;;;;;4439811;32;20309;-53
2021/04/22 05:10:50;;;;;;;41.40;23.00;;;;;;;;;;4438649;32;20337;-53
2021/04/22 05:13:15;;;;;;;40.77;22.80;;;;;;;;;;4439211;32;20359;-54
2021/04/22 05:15:41;;;;;;;36.43;21.00;;;;;;;;;;4441240;32;20237;-53
2021/04/22 05:18:07;;;;;;;33.33;20.47;;;;;;;;;;4439926;32;20280;-54
2021/04/22 05:20:32;;;;;;;42.20;20.60;;;;;;;;;;4444136;32;20669;-53
2021/04/22 05:22:58;;;;;;;30.17;20.27;;;;;;;;;;4442333;32;20665;-55
2021/04/22 05:25:23;;;;;;;28.10;17.80;;;;;;;;;;4444445;32;20469;-53
2021/04/22 05:27:49;;;;;;;27.10;16.90;;;;;;;;;;4441535;32;20714;-54
2021/04/22 05:30:15;;;;;;;26.80;16.90;;;;;;;;;;4447385;32;20331;-55
2021/04/22 05:32:40;;;;;;;27.60;17.53;;;;;;;;;;4439779;32;20744;-54
2021/04/22 05:35:07;;;;;;;21.90;14.57;;;;;;;;;;4443073;32;20271;-54
2021/04/22 05:37:32;;;;;;;29.97;19.80;;;;;;;;;;4446380;32;20292;-54
2021/04/22 05:39:58;;;;;;;23.60;16.47;;;;;;;;;;4445232;32;20332;-54
2021/04/22 05:42:23;;;;;;;37.97;23.10;;;;;;;;;;4441871;32;20334;-54
2021/04/22 05:44:49;;;;;;;47.30;29.93;;;;;;;;;;4448695;32;20247;-54
2021/04/22 05:47:14;;;;;;;41.60;25.90;;;;;;;;;;4438529;32;20252;-54
2021/04/22 05:49:40;;;;;;;34.37;24.00;;;;;;;;;;4446884;32;20308;-54
2021/04/22 05:52:05;;;;;;;37.43;20.33;;;;;;;;;;4437438;32;20295;-55
2021/04/22 05:54:31;;;;;;;37.23;23.17;;;;;;;;;;4434709;32;20208;-54
2021/04/22 05:56:56;;;;;;;38.00;21.00;;;;;;;;;;4441413;32;20720;-53
2021/04/22 05:59:22;;;;;;;29.37;21.73;;;;;;;;;;4435917;32;20313;-54
2021/04/22 06:01:48;;;;;;;26.23;15.47;;;;;;;;;;4440435;32;20291;-55
2021/04/22 06:04:13;;;;;;;23.03;15.20;;;;;;;;;;4439571;32;20330;-54
2021/04/22 06:06:38;;;;;;;23.33;12.93;;;;;;;;;;4439703;32;20400;-54
2021/04/22 06:09:05;;;;;;;21.90;13.43;;;;;;;;;;4438404;32;20411;-54
2021/04/22 06:11:31;;;;;;;18.60;11.53;;;;;;;;;;4440469;32;20239;-55
2021/04/22 06:13:56;;;;;;;14.87;10.60;;;;;;;;;;4441437;32;20213;-54
2021/04/22 06:16:22;;;;;;;16.10;11.03;;;;;;;;;;4439371;32;20306;-54
2021/04/22 06:18:47;;;;;;;22.63;13.70;;;;;;;;;;4444646;32;20315;-54
2021/04/22 06:21:13;;;;;;;24.73;14.30;;;;;;;;;;4439770;32;20247;-66
2021/04/22 06:23:39;;;;;;;32.93;15.63;;;;;;;;;;4443174;32;20317;-55
2021/04/22 06:26:05;;;;;;;30.33;16.13;;;;;;;;;;4438938;32;20296;-54
2021/04/22 06:28:30;;;;;;;21.63;14.10;;;;;;;;;;4433397;32;20298;-53
2021/04/22 06:30:56;;;;;;;24.57;14.27;;;;;;;;;;4445767;32;20234;-55
2021/04/22 06:33:21;;;;;;;25.93;14.20;;;;;;;;;;4442468;32;20383;-54
2021/04/22 06:35:47;;;;;;;29.00;16.00;;;;;;;;;;4439609;32;20236;-54
2021/04/22 06:38:12;;;;;;;35.47;17.77;;;;;;;;;;4449253;32;20347;-54
2021/04/22 06:40:38;;;;;;;25.07;15.23;;;;;;;;;;4444663;32;20223;-54
2021/04/22 06:43:04;;;;;;;24.93;13.90;;;;;;;;;;4437905;32;20364;-56
2021/04/22 06:45:30;;;;;;;21.00;13.33;;;;;;;;;;4448697;32;20670;-54
2021/04/22 06:47:55;;;;;;;23.60;14.43;;;;;;;;;;4439079;32;20598;-54
2021/04/22 06:50:23;;;;;;;26.37;13.83;;;;;;;;;;4447599;32;20220;-54
2021/04/22 06:52:49;;;;;;;27.13;16.23;;;;;;;;;;4440001;32;20265;-55
2021/04/22 06:55:18;;;;;;;26.63;15.57;;;;;;;;;;4444881;32;20299;-55
2021/04/22 06:57:43;;;;;;;28.17;17.03;;;;;;;;;;4446269;32;20212;-54
2021/04/22 07:00:15;;;;;;;24.47;15.33;;;;;;;;;;4443144;32;20278;-53
2021/04/22 07:02:40;;;;;;;20.50;15.03;;;;;;;;;;4443646;32;20224;-54
2021/04/22 07:05:08;;;;;;;26.90;16.93;;;;;;;;;;4439521;32;20391;-53
2021/04/22 07:07:33;;;;;;;31.93;15.67;;;;;;;;;;4449002;32;20235;-54
2021/04/22 07:09:59;;;;;;;21.83;14.70;;;;;;;;;;4441099;32;20300;-54
2021/04/22 07:12:25;;;;;;;23.70;15.07;;;;;;;;;;4443273;32;20287;-54
2021/04/22 07:14:50;;;;;;;20.57;13.07;;;;;;;;;;4440647;32;20228;-54
2021/04/22 07:17:17;;;;;;;23.60;15.17;;;;;;;;;;4446532;32;20309;-55
2021/04/22 07:19:42;;;;;;;21.93;13.33;;;;;;;;;;4449189;32;20224;-54
2021/04/22 07:22:08;;;;;;;28.27;14.50;;;;;;;;;;4442395;32;20366;-54
2021/04/22 07:24:33;;;;;;;26.93;13.60;;;;;;;;;;4448109;32;20307;-54
2021/04/22 07:26:59;;;;;;;21.10;11.07;;;;;;;;;;4440519;32;20295;-53
2021/04/22 07:29:24;;;;;;;14.63;10.97;;;;;;;;;;4446274;32;20704;-55
2021/04/22 07:31:50;;;;;;;21.80;10.73;;;;;;;;;;4440120;32;20279;-55
2021/04/22 07:34:15;;;;;;;8.27;6.60;;;;;;;;;;4448349;32;20756;-54
2021/04/22 07:36:41;;;;;;;4.97;4.10;;;;;;;;;;4442706;32;20482;-56
2021/04/22 07:39:06;;;;;;;8.90;5.30;;;;;;;;;;4449254;32;20220;-55
2021/04/22 07:41:32;;;;;;;7.30;5.23;;;;;;;;;;4444658;32;20345;-54
2021/04/22 07:43:58;;;;;;;9.60;5.83;;;;;;;;;;4449946;32;20220;-54
2021/04/22 07:46:23;;;;;;;11.63;5.97;;;;;;;;;;4440825;32;20664;-55
2021/04/22 07:48:49;;;;;;;11.33;5.93;;;;;;;;;;4444178;32;20261;-55
2021/04/22 07:51:14;;;;;;;10.80;4.33;;;;;;;;;;4442938;32;20725;-53
2021/04/22 07:53:39;;;;;;;11.10;5.87;;;;;;;;;;4445601;32;20348;-54
2021/04/22 07:56:05;;;;;;;9.00;5.07;;;;;;;;;;4443349;32;20689;-53
2021/04/22 07:58:31;;;;;;;5.83;4.47;;;;;;;;;;4449332;32;20406;-54
2021/04/22 08:00:58;;;;;;;5.40;4.37;;;;;;;;;;4450162;32;20247;-53
2021/04/22 08:03:24;;;;;;;6.40;3.17;;;;;;;;;;4443982;32;20293;-55
2021/04/22 08:05:55;;;;;;;14.57;4.87;;;;;;;;;;4433418;32;20709;-54
2021/04/22 08:08:21;;;;;;;9.33;4.30;;;;;;;;;;4434739;32;20193;-66
2021/04/22 08:10:48;;;;;;;5.80;4.10;;;;;;;;;;4449315;32;20264;-65
2021/04/22 08:13:15;;;;;;;8.73;4.83;;;;;;;;;;4449601;32;20220;-64
2021/04/22 08:15:44;;;;;;;9.77;4.80;;;;;;;;;;4449067;32;20248;-64
2021/04/22 08:18:09;;;;;;;7.33;5.90;;;;;;;;;;4449372;32;20236;-65
2021/04/22 08:20:36;;;;;;;9.37;6.57;;;;;;;;;;4449574;32;20862;-64
2021/04/22 08:23:04;;;;;;;14.17;6.03;;;;;;;;;;4449799;32;20223;-65
2021/04/22 08:25:39;;;;;;;15.00;5.80;;;;;;;;;;4448396;32;20260;-66
2021/04/22 08:28:08;;;;;;;9.03;6.27;;;;;;;;;;4439246;32;20247;-66
2021/04/22 08:30:38;;;;;;;9.77;7.00;;;;;;;;;;4448961;32;20317;-66
2021/04/22 08:33:04;;;;;;;8.80;5.93;;;;;;;;;;4441831;32;20227;-66
2021/04/22 08:35:30;;;;;;;9.70;6.93;;;;;;;;;;4440741;32;20550;-65
2021/04/22 08:37:56;;;;;;;9.77;5.77;;;;;;;;;;4447123;32;20240;-64
2021/04/22 08:40:23;;;;;;;6.63;5.43;;;;;;;;;;4439429;32;20248;-65
2021/04/22 08:42:49;;;;;;;6.87;5.13;;;;;;;;;;4440926;32;20803;-54
2021/04/22 08:45:15;;;;;;;7.17;4.83;;;;;;;;;;4443772;32;20391;-54
2021/04/22 08:47:42;;;;;;;9.53;4.87;;;;;;;;;;4438383;32;20279;-54
2021/04/22 08:50:12;;;;;;;8.23;4.70;;;;;;;;;;4444873;32;20291;-54
2021/04/22 08:52:38;;;;;;;7.07;4.23;;;;;;;;;;4441033;32;20267;-54
2021/04/22 08:55:06;;;;;;;4.33;3.57;;;;;;;;;;4435360;32;20880;-54
2021/04/22 08:57:32;;;;;;;4.60;3.90;;;;;;;;;;4448632;32;20197;-54
2021/04/22 08:59:57;;;;;;;5.93;4.63;;;;;;;;;;4443832;32;20689;-54
2021/04/22 09:02:23;;;;;;;13.03;6.07;;;;;;;;;;4440357;32;20465;-54
2021/04/22 09:04:48;;;;;;;8.00;4.83;;;;;;;;;;4434178;32;20232;-64
2021/04/22 09:07:15;;;;;;;11.30;4.63;;;;;;;;;;4446332;32;20377;-55
2021/04/22 09:09:41;;;;;;;6.07;4.03;;;;;;;;;;4436369;32;20304;-54
2021/04/22 09:12:17;;;;;;;6.97;5.00;;;;;;;;;;4435614;32;20701;-56
2021/04/22 09:15:03;;;;;;;11.27;5.57;;;;;;;;;;4446006;32;20273;-54
2021/04/22 09:17:29;;;;;;;8.60;5.73;;;;;;;;;;4435594;32;20255;-54
2021/04/22 09:19:55;;;;;;;10.00;5.10;;;;;;;;;;4449310;32;20766;-54
2021/04/22 09:22:36;;;;;;;9.33;6.80;;;;;;;;;;4449111;32;20200;-53
2021/04/22 09:25:20;;;;;;;9.87;6.33;;;;;;;;;;4449408;32;20247;-54
2021/04/22 09:27:46;;;;;;;11.13;5.47;;;;;;;;;;4446605;32;20414;-55
2021/04/22 09:30:17;;;;;;;10.03;6.40;;;;;;;;;;4437771;32;20279;-54
2021/04/22 09:32:43;;;;;;;9.10;5.10;;;;;;;;;;4442059;32;20232;-54
2021/04/22 09:35:13;;;;;;;10.60;5.00;;;;;;;;;;4448764;32;20233;-54
2021/04/22 09:37:41;;;;;;;7.70;4.30;;;;;;;;;;4448433;32;20493;-54
2021/04/22 09:40:27;;;;;;;11.50;4.00;;;;;;;;;;4446441;32;20241;-53
2021/04/22 09:42:54;;;;;;;6.12;5.03;;;;;;;;;;4448448;32;20326;-54
2021/04/22 09:45:24;;;;;;;5.47;4.00;;;;;;;;;;4448276;32;20221;-63
2021/04/22 09:47:51;;;;;;;5.50;4.18;;;;;;;;;;4440434;32;20320;-63
2021/04/22 09:50:21;;;;;;;4.75;3.62;;;;;;;;;;4432840;32;20657;-63
2021/04/22 09:52:50;;;;;;;7.30;4.77;;;;;;;;;;4433047;32;20201;-64
2021/04/22 09:55:19;;;;;;;4.20;3.20;;;;;;;;;;4433043;32;20251;-65
2021/04/22 09:57:45;;;;;;;2.78;2.03;;;;;;;;;;4440254;32;20459;-61
2021/04/22 10:00:30;;;;;;;7.82;3.25;;;;;;;;;;4448548;32;20224;-62
2021/04/22 10:02:59;;;;;;;6.25;2.05;;;;;;;;;;4448809;32;20249;-63
2021/04/22 10:05:24;;;;;;;5.10;2.05;;;;;;;;;;4447220;32;20331;-64
2021/04/22 10:08:01;;;;;;;2.85;1.50;;;;;;;;;;4447034;32;20690;-64
2021/04/22 10:10:27;;;;;;;5.22;1.77;;;;;;;;;;4435121;32;20280;-63
2021/04/22 10:12:59;;;;;;;6.68;1.92;;;;;;;;;;4450578;32;20395;-64
2021/04/22 10:15:24;;;;;;;3.97;1.25;;;;;;;;;;4436302;32;20288;-63
2021/04/22 10:17:55;;;;;;;2.58;1.40;;;;;;;;;;4437151;32;20640;-64
2021/04/22 10:20:22;;;;;;;2.03;1.25;;;;;;;;;;4439884;32;20709;-64
2021/04/22 10:22:49;;;;;;;1.62;1.37;;;;;;;;;;4443557;32;20236;-63
2021/04/22 10:25:21;;;;;;;5.78;2.00;;;;;;;;;;4449912;32;20386;-61
2021/04/22 10:27:47;;;;;;;1.70;1.48;;;;;;;;;;4439031;32;20204;-63
2021/04/22 10:30:22;;;;;;;7.15;1.77;;;;;;;;;;4447676;32;20278;-64
2021/04/22 10:32:48;;;;;;;1.80;1.30;;;;;;;;;;4451559;32;20230;-63
2021/04/22 10:35:17;;;;;;;2.03;1.20;;;;;;;;;;4449363;32;20538;-62
2021/04/22 10:37:44;;;;;;;3.28;1.27;;;;;;;;;;4431223;32;20481;-62
2021/04/22 10:40:11;;;;;;;3.00;1.00;;;;;;;;;;4447290;32;20608;-63
2021/04/22 10:42:38;;;;;;;1.90;1.23;;;;;;;;;;4440480;32;20226;-62
2021/04/22 10:45:06;;;;;;;1.25;1.10;;;;;;;;;;4436031;32;20468;-63
2021/04/22 10:47:32;;;;;;;4.12;1.48;;;;;;;;;;4443225;32;20438;-62
2021/04/22 10:49:58;;;;;;;1.50;1.30;;;;;;;;;;4441487;32;20636;-62
2021/04/22 11:09:20;;;;;;;3.05;1.87;;;;;;;;;;4435789;32;20380;-64
2021/04/22 11:11:58;;;;;;;3.58;2.40;;;;;;;;;;4443620;32;20265;-54
2021/04/22 11:14:51;;;;;;;15.73;7.47;;;;;;;;;;4450481;32;20239;-54
2021/04/22 11:17:17;;;;;;;13.27;4.72;;;;;;;;;;4435271;32;20508;-53
2021/04/22 11:19:46;;;;;;;2.95;1.77;;;;;;;;;;4450466;32;20312;-54
2021/04/22 11:22:18;;;;;;;5.75;1.90;;;;;;;;;;4451029;32;20208;-54
2021/04/22 11:24:55;;;;;;;1.80;1.33;;;;;;;;;;4449659;32;20278;-53
2021/04/22 11:27:22;;;;;;;1.08;0.98;;;;;;;;;;4449432;32;20216;-54
2021/04/22 11:29:57;;;;;;;1.60;1.33;;;;;;;;;;4450275;32;20244;-53
2021/04/22 11:32:34;;;;;;;1.30;1.00;;;;;;;;;;4450584;32;20230;-54
2021/04/22 11:35:05;;;;;;;1.73;1.17;;;;;;;;;;4450372;32;20239;-53
2021/04/22 11:37:36;;;;;;;4.40;2.03;;;;;;;;;;4450771;32;20268;-52
2021/04/22 11:40:17;;;;;;;17.95;10.25;;;;;;;;;;4450659;32;20217;-54
2021/04/22 11:42:46;;;;;;;6.62;3.85;;;;;;;;;;4450911;32;20214;-54
2021/04/22 11:45:31;;;;;;;3.35;2.25;;;;;;;;;;4449658;32;20648;-54
2021/04/22 11:48:01;;;;;;;5.68;2.10;;;;;;;;;;4450598;32;20583;-54
2021/04/22 11:50:38;;;;;;;5.68;1.25;;;;;;;;;;4449713;32;20652;-54
2021/04/22 11:53:04;;;;;;;10.68;5.70;;;;;;;;;;4450042;32;20227;-53
2021/04/22 11:55:36;;;;;;;4.82;1.40;;;;;;;;;;4448525;32;20621;-54
2021/04/22 11:58:11;;;;;;;9.55;4.43;;;;;;;;;;4443066;32;20266;-54
2021/04/22 12:00:48;;;;;;;4.00;3.05;;;;;;;;;;4450141;32;20608;-55
2021/04/22 12:03:23;;;;;;;5.25;3.40;;;;;;;;;;4450406;32;20301;-55
2021/04/22 12:05:57;;;;;;;9.70;6.18;;;;;;;;;;4450156;32;20276;-53
2021/04/22 12:08:31;;;;;;;3.12;1.62;;;;;;;;;;4450340;32;20546;-54
2021/04/22 12:10:59;;;;;;;3.35;1.50;;;;;;;;;;4450159;32;20656;-53
2021/04/22 12:13:26;;;;;;;4.28;2.55;;;;;;;;;;4450220;32;20331;-54
2021/04/22 12:15:58;;;;;;;6.43;2.20;;;;;;;;;;4449510;32;20201;-54
2021/04/22 12:18:36;;;;;;;9.60;2.33;;;;;;;;;;4449812;32;20213;-54
2021/04/22 12:21:20;;;;;;;16.20;5.93;;;;;;;;;;4434145;32;20193;-55
2021/04/22 12:23:49;;;;;;;5.22;1.60;;;;;;;;;;4434171;32;20319;-58
2021/04/22 12:39:52;;;;;;;45.28;20.88;;;;;;;;;;4434092;32;20263;-54
2021/04/22 12:42:26;;;;;;;3.28;1.98;;;;;;;;;;4434209;32;20189;-55
2021/04/22 12:45:13;;;;;;;26.42;12.80;;;;;;;;;;4436366;32;20288;-53
2021/04/22 12:47:52;;;;;;;4.00;2.60;;;;;;;;;;4449902;32;20220;-55
2021/04/22 12:50:26;;;;;;;4.62;3.03;;;;;;;;;;4449821;32;20224;-54
2021/04/22 12:53:18;;;;;;;27.45;13.07;;;;;;;;;;4449515;32;20624;-53
2021/04/22 12:55:48;;;;;;;48.92;20.92;;;;;;;;;;4449314;32;20730;-53
2021/04/22 12:58:15;;;;;;;35.20;13.50;;;;;;;;;;4438931;32;20230;-54
2021/04/22 13:00:48;;;;;;;45.58;23.52;;;;;;;;;;4438800;32;20216;-54
2021/04/22 13:03:24;;;;;;;6.28;3.55;;;;;;;;;;4449476;32;20219;-54
2021/04/22 13:05:55;;;;;;;37.80;17.27;;;;;;;;;;4448965;32;20225;-54
2021/04/22 13:08:22;;;;;;;13.82;5.25;;;;;;;;;;4448968;32;20208;-53
2021/04/22 13:10:56;;;;;;;16.40;9.77;;;;;;;;;;4449175;32;20276;-54
2021/04/22 13:13:35;;;;;;;8.05;4.07;;;;;;;;;;4449062;32;20230;-54
2021/04/22 13:16:09;;;;;;;18.42;9.27;;;;;;;;;;4447515;32;20286;-53
2021/04/22 13:18:36;;;;;;;22.87;12.63;;;;;;;;;;4449293;32;20293;-54
2021/04/22 13:21:04;;;;;;;5.75;3.45;;;;;;;;;;4433780;32;20557;-55
2021/04/22 13:23:38;;;;;;;25.55;14.48;;;;;;;;;;4433999;32;20277;-55
2021/04/22 13:26:12;;;;;;;34.05;16.60;;;;;;;;;;4433731;32;20201;-54
2021/04/22 13:28:38;;;;;;;35.33;15.82;;;;;;;;;;4433607;32;20778;-54
2021/04/22 13:31:22;;;;;;;53.53;21.60;;;;;;;;;;4433532;32;20394;-53
2021/04/22 13:33:49;;;;;;;31.98;12.13;;;;;;;;;;4433393;32;20213;-55
2021/04/22 13:36:16;;;;;;;14.30;7.70;;;;;;;;;;4433337;32;20364;-53
2021/04/22 13:38:44;;;;;;;154.15;56.75;;;;;;;;;;4433660;32;20298;-54
2021/04/22 13:41:19;;;;;;;115.00;43.28;;;;;;;;;;4433273;32;20620;-55
2021/04/22 13:43:54;;;;;;;130.25;43.92;;;;;;;;;;4433269;32;20362;-53
2021/04/22 13:46:20;;;;;;;25.88;12.25;;;;;;;;;;4432704;32;20212;-54
2021/04/22 13:48:52;;;;;;;7.65;4.28;;;;;;;;;;4438211;32;20913;-54
2021/04/22 13:51:25;;;;;;;8.23;3.12;;;;;;;;;;4441026;32;20284;-53
2021/04/22 13:54:03;;;;;;;14.02;6.60;;;;;;;;;;4444696;32;20633;-54
2021/04/22 13:56:28;;;;;;;63.67;25.55;;;;;;;;;;4434398;32;20240;-54
2021/04/22 13:58:54;;;;;;;33.42;13.25;;;;;;;;;;4447721;32;20242;-53
2021/04/22 14:01:22;;;;;;;15.93;6.53;;;;;;;;;;4439933;32;20341;-63
2021/04/22 14:03:53;;;;;;;12.95;6.43;;;;;;;;;;4433655;32;20217;-62
2021/04/22 14:06:19;;;;;;;63.50;30.10;;;;;;;;;;4434326;32;20282;-63
2021/04/22 14:08:44;;;;;;;50.12;20.83;;;;;;;;;;4441052;32;20867;-63
2021/04/22 14:11:12;;;;;;;45.03;16.92;;;;;;;;;;4440440;32;20376;-62
2021/04/22 14:13:38;;;;;;;145.30;60.95;;;;;;;;;;4448551;32;20280;-63
2021/04/22 14:16:04;;;;;;;116.72;44.33;;;;;;;;;;4448515;32;20213;-62
2021/04/22 14:18:29;;;;;;;109.63;44.45;;;;;;;;;;4448596;32;20310;-62
2021/04/22 14:20:54;;;;;;;20.05;10.38;;;;;;;;;;4448135;32;20275;-63
2021/04/22 14:23:20;;;;;;;26.67;13.65;;;;;;;;;;4447178;32;20346;-63
2021/04/22 14:25:45;;;;;;;15.18;7.22;;;;;;;;;;4448768;32;20247;-62
2021/04/22 14:28:11;;;;;;;79.25;28.23;;;;;;;;;;4449062;32;20295;-62
2021/04/22 14:30:36;;;;;;;7.07;4.43;;;;;;;;;;4449062;32;20208;-62
2021/04/22 14:33:02;;;;;;;149.77;66.47;;;;;;;;;;4447403;32;20303;-61
2021/04/22 14:35:28;;;;;;;414.98;225.07;;;;;;;;;;4448350;32;20293;-62
2021/04/22 14:37:53;;;;;;;313.30;167.48;;;;;;;;;;4448674;32;21082;-62
2021/04/22 14:40:19;;;;;;;124.55;68.45;;;;;;;;;;4448524;32;20632;-62
2021/04/22 14:42:44;;;;;;;79.62;43.42;;;;;;;;;;4442137;32;20330;-62
2021/04/22 14:45:10;;;;;;;44.58;25.70;;;;;;;;;;4436487;32;20251;-61
2021/04/22 14:47:35;;;;;;;93.35;48.20;;;;;;;;;;4436187;32;20315;-61
2021/04/22 14:50:01;;;;;;;19.77;10.88;;;;;;;;;;4437659;32;20236;-63
2021/04/22 14:52:26;;;;;;;64.32;34.38;;;;;;;;;;4432773;32;20271;-62
2021/04/22 14:54:52;;;;;;;196.90;95.78;;;;;;;;;;4432764;32;20633;-62
2021/04/22 14:57:18;;;;;;;111.50;54.60;;;;;;;;;;4437080;32;20669;-62
2021/04/22 14:59:44;;;;;;;9.63;6.75;;;;;;;;;;4445987;32;20312;-62